sensor_id;sensor_type;location;lat;lon;timestamp;pressure;altitude;pressure_sealevel;temperature;humidity
38718;BME280;24468;52.128;9.278;2022-11-06T00:01:10;100763.22;;;9.48;100.00
38718;BME280;24468;52.128;9.278;2022-11-06T00:03:36;100763.94;;;9.53;100.00
38718;BME280;24468;52.128;9.278;2022-11-06T00:06:11;100762.38;;;9.46;100.00
38718;BME280;24468;52.128;9.278;2022-11-06T00:08:57;100761.88;;;9.34;100.00
38718;BME280;24468;52.128;9.278;2022-11-06T00:11:22;100766.25;;;9.39;100.00
38718;BME280;24468;52.128;9.278;2022-11-06T00:13:49;100761.25;;;9.53;100.00
38718;BME280;24468;52.128;9.278;2022-11-06T00:16:17;100758.66;;;9.50;100.00
38718;BME280;24468;52.128;9.278;2022-11-06T00:18:44;100762.66;;;9.63;100.00
38718;BME280;24468;52.128;9.278;2022-11-06T00:21:22;100761.88;;;9.60;100.00
38718;BME280;24468;52.128;9.278;2022-11-06T00:23:49;100766.75;;;9.50;100.00
38718;BME280;24468;52.128;9.278;2022-11-06T00:26:21;100775.94;;;9.68;100.00
38718;BME280;24468;52.128;9.278;2022-11-06T00:28:48;100767.59;;;9.75;100.00
38718;BME280;24468;52.128;9.278;2022-11-06T00:31:20;100770.22;;;9.77;100.00
38718;BME280;24468;52.128;9.278;2022-11-06T00:33:47;100773.09;;;9.72;100.00
38718;BME280;24468;52.128;9.278;2022-11-06T00:36:17;100777.38;;;9.78;100.00
38718;BME280;24468;52.128;9.278;2022-11-06T00:38:44;100777.25;;;9.81;100.00
38718;BME280;24468;52.128;9.278;2022-11-06T00:41:13;100778.31;;;9.77;100.00
38718;BME280;24468;52.128;9.278;2022-11-06T00:43:40;100775.78;;;9.72;100.00
38718;BME280;24468;52.128;9.278;2022-11-06T00:46:11;100774.91;;;9.72;100.00
38718;BME280;24468;52.128;9.278;2022-11-06T00:48:38;100775.91;;;9.69;100.00
38718;BME280;24468;52.128;9.278;2022-11-06T00:51:10;100784.34;;;9.60;100.00
38718;BME280;24468;52.128;9.278;2022-11-06T00:53:36;100774.47;;;9.59;100.00
38718;BME280;24468;52.128;9.278;2022-11-06T00:58:37;100773.75;;;9.54;100.00
38718;BME280;24468;52.128;9.278;2022-11-06T01:01:18;100772.47;;;9.41;100.00
38718;BME280;24468;52.128;9.278;2022-11-06T01:03:45;100765.25;;;9.41;100.00
38718;BME280;24468;52.128;9.278;2022-11-06T01:06:16;100769.81;;;9.39;100.00
38718;BME280;24468;52.128;9.278;2022-11-06T01:08:42;100776.53;;;9.27;100.00
38718;BME280;24468;52.128;9.278;2022-11-06T01:11:27;100761.56;;;9.19;100.00
38718;BME280;24468;52.128;9.278;2022-11-06T01:13:55;100765.25;;;9.16;100.00
38718;BME280;24468;52.128;9.278;2022-11-06T01:16:22;100765.63;;;9.05;100.00
38718;BME280;24468;52.128;9.278;2022-11-06T01:18:49;100765.75;;;9.02;100.00
38718;BME280;24468;52.128;9.278;2022-11-06T01:21:19;100754.91;;;9.04;100.00
38718;BME280;24468;52.128;9.278;2022-11-06T01:23:46;100771.88;;;9.06;100.00
38718;BME280;24468;52.128;9.278;2022-11-06T01:26:13;100761.22;;;9.03;100.00
38718;BME280;24468;52.128;9.278;2022-11-06T01:28:40;100763.09;;;9.01;100.00
38718;BME280;24468;52.128;9.278;2022-11-06T01:31:10;100763.84;;;9.04;100.00
38718;BME280;24468;52.128;9.278;2022-11-06T01:33:36;100758.03;;;8.92;100.00
38718;BME280;24468;52.128;9.278;2022-11-06T01:36:03;100757.72;;;9.01;100.00
38718;BME280;24468;52.128;9.278;2022-11-06T01:38:29;100760.50;;;8.98;100.00
38718;BME280;24468;52.128;9.278;2022-11-06T01:40:55;100762.31;;;8.97;100.00
38718;BME280;24468;52.128;9.278;2022-11-06T01:43:24;100765.81;;;8.99;100.00
38718;BME280;24468;52.128;9.278;2022-11-06T01:45:53;100756.75;;;9.02;100.00
38718;BME280;24468;52.128;9.278;2022-11-06T01:48:24;100761.97;;;9.08;100.00
38718;BME280;24468;52.128;9.278;2022-11-06T01:50:55;100767.22;;;9.11;100.00
38718;BME280;24468;52.128;9.278;2022-11-06T01:53:21;100759.63;;;8.97;100.00
38718;BME280;24468;52.128;9.278;2022-11-06T01:56:02;100762.00;;;9.06;100.00
38718;BME280;24468;52.128;9.278;2022-11-06T01:58:31;100757.44;;;9.08;100.00
38718;BME280;24468;52.128;9.278;2022-11-06T02:00:57;100749.97;;;9.17;100.00
38718;BME280;24468;52.128;9.278;2022-11-06T02:03:23;100748.22;;;9.16;100.00
38718;BME280;24468;52.128;9.278;2022-11-06T02:05:49;100743.53;;;9.21;100.00
38718;BME280;24468;52.128;9.278;2022-11-06T02:08:18;100743.44;;;9.24;100.00
38718;BME280;24468;52.128;9.278;2022-11-06T02:10:45;100741.03;;;9.16;100.00
38718;BME280;24468;52.128;9.278;2022-11-06T02:13:22;100735.53;;;9.19;100.00
38718;BME280;24468;52.128;9.278;2022-11-06T02:22:07;100723.97;;;9.16;100.00
38718;BME280;24468;52.128;9.278;2022-11-06T02:27:31;100714.28;;;9.11;100.00
38718;BME280;24468;52.128;9.278;2022-11-06T02:30:07;100720.41;;;9.15;100.00
38718;BME280;24468;52.128;9.278;2022-11-06T02:33:07;100715.09;;;9.13;100.00
38718;BME280;24468;52.128;9.278;2022-11-06T02:35:43;100713.22;;;9.16;100.00
38718;BME280;24468;52.128;9.278;2022-11-06T02:38:16;100704.88;;;9.23;100.00
38718;BME280;24468;52.128;9.278;2022-11-06T02:40:49;100709.22;;;9.27;100.00
38718;BME280;24468;52.128;9.278;2022-11-06T02:43:17;100709.38;;;9.23;100.00
38718;BME280;24468;52.128;9.278;2022-11-06T02:45:54;100701.63;;;9.39;100.00
38718;BME280;24468;52.128;9.278;2022-11-06T02:48:25;100708.63;;;9.19;100.00
38718;BME280;24468;52.128;9.278;2022-11-06T02:50:54;100696.06;;;9.18;100.00
38718;BME280;24468;52.128;9.278;2022-11-06T02:53:24;100687.97;;;8.95;100.00
38718;BME280;24468;52.128;9.278;2022-11-06T02:55:55;100690.28;;;9.05;100.00
38718;BME280;24468;52.128;9.278;2022-11-06T02:59:15;100693.34;;;8.95;100.00
38718;BME280;24468;52.128;9.278;2022-11-06T03:01:27;100682.25;;;9.04;100.00
38718;BME280;24468;52.128;9.278;2022-11-06T03:04:02;100679.50;;;9.05;100.00
38718;BME280;24468;52.128;9.278;2022-11-06T03:06:35;100686.06;;;8.97;100.00
38718;BME280;24468;52.128;9.278;2022-11-06T03:09:08;100679.66;;;9.01;100.00
38718;BME280;24468;52.128;9.278;2022-11-06T03:11:35;100688.47;;;9.06;100.00
38718;BME280;24468;52.128;9.278;2022-11-06T03:14:30;100680.31;;;8.82;100.00
38718;BME280;24468;52.128;9.278;2022-11-06T03:20:20;100677.63;;;8.82;100.00
38718;BME280;24468;52.128;9.278;2022-11-06T03:23:09;100670.38;;;8.84;100.00
38718;BME280;24468;52.128;9.278;2022-11-06T03:26:24;100675.66;;;8.87;100.00
38718;BME280;24468;52.128;9.278;2022-11-06T03:29:07;100687.16;;;8.91;100.00
38718;BME280;24468;52.128;9.278;2022-11-06T03:31:42;100679.41;;;9.08;100.00
38718;BME280;24468;52.128;9.278;2022-11-06T03:34:18;100679.66;;;9.26;100.00
38718;BME280;24468;52.128;9.278;2022-11-06T03:36:56;100683.59;;;9.64;100.00
38718;BME280;24468;52.128;9.278;2022-11-06T03:39:32;100687.06;;;9.44;100.00
38718;BME280;24468;52.128;9.278;2022-11-06T03:42:06;100676.75;;;9.79;100.00
38718;BME280;24468;52.128;9.278;2022-11-06T03:44:40;100664.44;;;9.72;100.00
38718;BME280;24468;52.128;9.278;2022-11-06T03:47:32;100671.53;;;9.51;100.00
38718;BME280;24468;52.128;9.278;2022-11-06T03:50:19;100671.53;;;9.27;100.00
38718;BME280;24468;52.128;9.278;2022-11-06T03:52:59;100663.16;;;9.58;100.00
38718;BME280;24468;52.128;9.278;2022-11-06T03:55:31;100672.53;;;9.72;100.00
38718;BME280;24468;52.128;9.278;2022-11-06T03:58:05;100672.88;;;9.39;100.00
38718;BME280;24468;52.128;9.278;2022-11-06T04:00:34;100658.22;;;9.23;100.00
38718;BME280;24468;52.128;9.278;2022-11-06T04:03:06;100661.00;;;9.45;100.00
38718;BME280;24468;52.128;9.278;2022-11-06T04:05:47;100659.47;;;9.38;100.00
38718;BME280;24468;52.128;9.278;2022-11-06T04:08:16;100665.19;;;9.28;100.00
38718;BME280;24468;52.128;9.278;2022-11-06T04:11:03;100658.66;;;9.59;100.00
38718;BME280;24468;52.128;9.278;2022-11-06T04:13:51;100661.94;;;9.44;100.00
38718;BME280;24468;52.128;9.278;2022-11-06T04:16:59;100659.13;;;9.47;100.00
38718;BME280;24468;52.128;9.278;2022-11-06T04:19:26;100666.03;;;9.77;100.00
38718;BME280;24468;52.128;9.278;2022-11-06T04:22:21;100666.25;;;9.48;100.00
38718;BME280;24468;52.128;9.278;2022-11-06T04:31:37;100669.31;;;9.62;100.00
38718;BME280;24468;52.128;9.278;2022-11-06T04:34:44;100671.41;;;9.77;100.00
38718;BME280;24468;52.128;9.278;2022-11-06T04:37:52;100676.19;;;9.71;100.00
38718;BME280;24468;52.128;9.278;2022-11-06T04:45:52;100666.47;;;9.65;100.00
38718;BME280;24468;52.128;9.278;2022-11-06T04:48:20;100677.38;;;9.86;100.00
38718;BME280;24468;52.128;9.278;2022-11-06T04:50:55;100673.66;;;9.66;100.00
38718;BME280;24468;52.128;9.278;2022-11-06T04:53:23;100676.81;;;9.77;100.00
38718;BME280;24468;52.128;9.278;2022-11-06T04:55:54;100681.19;;;9.80;100.00
38718;BME280;24468;52.128;9.278;2022-11-06T04:58:20;100676.66;;;9.57;100.00
38718;BME280;24468;52.128;9.278;2022-11-06T05:00:49;100672.56;;;9.70;100.00
38718;BME280;24468;52.128;9.278;2022-11-06T05:03:15;100657.00;;;9.78;100.00
38718;BME280;24468;52.128;9.278;2022-11-06T05:05:42;100667.56;;;9.85;100.00
38718;BME280;24468;52.128;9.278;2022-11-06T05:08:16;100668.38;;;9.63;100.00
38718;BME280;24468;52.128;9.278;2022-11-06T05:10:43;100667.44;;;9.64;100.00
38718;BME280;24468;52.128;9.278;2022-11-06T05:13:09;100661.22;;;9.62;100.00
38718;BME280;24468;52.128;9.278;2022-11-06T05:15:35;100671.66;;;9.48;100.00
38718;BME280;24468;52.128;9.278;2022-11-06T05:18:01;100668.84;;;9.74;100.00
38718;BME280;24468;52.128;9.278;2022-11-06T05:20:27;100662.91;;;9.88;100.00
38718;BME280;24468;52.128;9.278;2022-11-06T05:22:52;100664.31;;;9.75;100.00
38718;BME280;24468;52.128;9.278;2022-11-06T05:25:36;100663.69;;;9.68;100.00
38718;BME280;24468;52.128;9.278;2022-11-06T05:28:04;100665.44;;;9.69;100.00
38718;BME280;24468;52.128;9.278;2022-11-06T05:30:32;100659.91;;;9.96;100.00
38718;BME280;24468;52.128;9.278;2022-11-06T05:32:58;100662.50;;;9.75;100.00
38718;BME280;24468;52.128;9.278;2022-11-06T05:35:23;100656.41;;;9.94;100.00
38718;BME280;24468;52.128;9.278;2022-11-06T05:37:49;100654.00;;;9.86;100.00
38718;BME280;24468;52.128;9.278;2022-11-06T05:40:15;100651.03;;;9.70;100.00
38718;BME280;24468;52.128;9.278;2022-11-06T05:42:42;100645.59;;;9.48;100.00
38718;BME280;24468;52.128;9.278;2022-11-06T05:45:09;100635.81;;;9.46;100.00
38718;BME280;24468;52.128;9.278;2022-11-06T05:47:37;100639.97;;;9.31;100.00
38718;BME280;24468;52.128;9.278;2022-11-06T05:50:03;100645.47;;;9.28;100.00
38718;BME280;24468;52.128;9.278;2022-11-06T05:52:29;100638.16;;;9.31;100.00
38718;BME280;24468;52.128;9.278;2022-11-06T05:54:55;100633.06;;;9.24;100.00
38718;BME280;24468;52.128;9.278;2022-11-06T05:57:20;100636.66;;;9.24;100.00
38718;BME280;24468;52.128;9.278;2022-11-06T05:59:46;100642.94;;;9.23;100.00
38718;BME280;24468;52.128;9.278;2022-11-06T06:02:11;100633.00;;;9.25;100.00
38718;BME280;24468;52.128;9.278;2022-11-06T06:04:37;100628.47;;;9.27;100.00
38718;BME280;24468;52.128;9.278;2022-11-06T06:07:02;100630.66;;;9.40;100.00
38718;BME280;24468;52.128;9.278;2022-11-06T06:09:28;100635.47;;;9.55;100.00
38718;BME280;24468;52.128;9.278;2022-11-06T06:11:53;100638.22;;;9.53;100.00
38718;BME280;24468;52.128;9.278;2022-11-06T06:14:20;100631.97;;;9.53;100.00
38718;BME280;24468;52.128;9.278;2022-11-06T06:16:45;100623.06;;;9.51;100.00
38718;BME280;24468;52.128;9.278;2022-11-06T06:19:12;100618.97;;;9.41;100.00
38718;BME280;24468;52.128;9.278;2022-11-06T06:21:37;100621.13;;;9.31;100.00
38718;BME280;24468;52.128;9.278;2022-11-06T06:24:04;100614.22;;;9.24;100.00
38718;BME280;24468;52.128;9.278;2022-11-06T06:26:29;100616.63;;;9.08;100.00
38718;BME280;24468;52.128;9.278;2022-11-06T06:28:55;100614.56;;;9.15;100.00
38718;BME280;24468;52.128;9.278;2022-11-06T06:31:21;100614.91;;;9.29;100.00
38718;BME280;24468;52.128;9.278;2022-11-06T06:33:47;100605.22;;;9.25;100.00
38718;BME280;24468;52.128;9.278;2022-11-06T06:36:12;100611.91;;;9.38;100.00
38718;BME280;24468;52.128;9.278;2022-11-06T06:38:38;100622.59;;;9.40;100.00
38718;BME280;24468;52.128;9.278;2022-11-06T06:41:06;100616.63;;;9.31;100.00
38718;BME280;24468;52.128;9.278;2022-11-06T06:43:33;100625.28;;;9.40;100.00
38718;BME280;24468;52.128;9.278;2022-11-06T06:46:00;100625.66;;;9.30;100.00
38718;BME280;24468;52.128;9.278;2022-11-06T06:48:27;100622.94;;;9.30;100.00
38718;BME280;24468;52.128;9.278;2022-11-06T06:50:57;100629.84;;;9.14;100.00
38718;BME280;24468;52.128;9.278;2022-11-06T06:53:23;100628.16;;;9.58;100.00
38718;BME280;24468;52.128;9.278;2022-11-06T06:55:48;100623.47;;;9.40;100.00
38718;BME280;24468;52.128;9.278;2022-11-06T06:58:14;100624.34;;;9.17;100.00
38718;BME280;24468;52.128;9.278;2022-11-06T07:00:40;100622.84;;;9.33;100.00
38718;BME280;24468;52.128;9.278;2022-11-06T07:03:05;100626.09;;;9.18;100.00
38718;BME280;24468;52.128;9.278;2022-11-06T07:05:31;100622.94;;;9.30;100.00
38718;BME280;24468;52.128;9.278;2022-11-06T07:07:57;100623.47;;;9.40;100.00
38718;BME280;24468;52.128;9.278;2022-11-06T07:10:22;100628.25;;;9.32;100.00
38718;BME280;24468;52.128;9.278;2022-11-06T07:12:48;100628.22;;;9.33;100.00
38718;BME280;24468;52.128;9.278;2022-11-06T07:15:14;100625.56;;;9.55;100.00
38718;BME280;24468;52.128;9.278;2022-11-06T07:17:39;100630.53;;;9.43;100.00
38718;BME280;24468;52.128;9.278;2022-11-06T07:20:06;100621.56;;;9.44;100.00
38718;BME280;24468;52.128;9.278;2022-11-06T07:22:32;100623.84;;;9.54;100.00
38718;BME280;24468;52.128;9.278;2022-11-06T07:24:58;100612.31;;;9.27;100.00
38718;BME280;24468;52.128;9.278;2022-11-06T07:27:24;100606.84;;;9.29;100.00
38718;BME280;24468;52.128;9.278;2022-11-06T07:29:49;100606.81;;;9.30;100.00
38718;BME280;24468;52.128;9.278;2022-11-06T07:32:15;100618.41;;;9.32;100.00
38718;BME280;24468;52.128;9.278;2022-11-06T07:34:40;100612.75;;;9.15;100.00
38718;BME280;24468;52.128;9.278;2022-11-06T07:37:06;100618.16;;;9.39;100.00
38718;BME280;24468;52.128;9.278;2022-11-06T07:39:32;100616.63;;;9.31;100.00
38718;BME280;24468;52.128;9.278;2022-11-06T07:41:58;100618.88;;;9.44;100.00
38718;BME280;24468;52.128;9.278;2022-11-06T07:44:23;100605.59;;;9.38;100.00
38718;BME280;24468;52.128;9.278;2022-11-06T07:46:49;100611.69;;;9.43;100.00
38718;BME280;24468;52.128;9.278;2022-11-06T07:49:15;100614.81;;;9.55;100.00
38718;BME280;24468;52.128;9.278;2022-11-06T07:51:41;100612.25;;;9.74;100.00
38718;BME280;24468;52.128;9.278;2022-11-06T07:54:07;100608.75;;;9.72;100.00
38718;BME280;24468;52.128;9.278;2022-11-06T07:56:34;100611.88;;;9.62;100.00
38718;BME280;24468;52.128;9.278;2022-11-06T07:58:59;100615.25;;;9.67;100.00
38718;BME280;24468;52.128;9.278;2022-11-06T08:01:25;100612.38;;;9.71;100.00
38718;BME280;24468;52.128;9.278;2022-11-06T08:03:50;100604.88;;;10.01;100.00
38718;BME280;24468;52.128;9.278;2022-11-06T08:06:16;100603.75;;;10.07;100.00
38718;BME280;24468;52.128;9.278;2022-11-06T08:08:42;100602.09;;;10.25;100.00
38718;BME280;24468;52.128;9.278;2022-11-06T08:11:09;100598.06;;;10.37;100.00
38718;BME280;24468;52.128;9.278;2022-11-06T08:13:35;100592.97;;;10.29;100.00
38718;BME280;24468;52.128;9.278;2022-11-06T08:18:30;100587.19;;;10.38;100.00
38718;BME280;24468;52.128;9.278;2022-11-06T08:20:55;100591.88;;;10.33;100.00
38718;BME280;24468;52.128;9.278;2022-11-06T08:23:21;100583.66;;;10.36;100.00
38718;BME280;24468;52.128;9.278;2022-11-06T08:25:46;100590.00;;;10.35;100.00
38718;BME280;24468;52.128;9.278;2022-11-06T08:28:12;100589.81;;;10.40;100.00
38718;BME280;24468;52.128;9.278;2022-11-06T08:30:37;100588.28;;;10.34;100.00
38718;BME280;24468;52.128;9.278;2022-11-06T08:33:06;100597.78;;;10.63;100.00
38718;BME280;24468;52.128;9.278;2022-11-06T08:35:36;100592.34;;;10.65;100.00
38718;BME280;24468;52.128;9.278;2022-11-06T08:38:02;100588.16;;;10.78;100.00
38718;BME280;24468;52.128;9.278;2022-11-06T08:40:28;100591.72;;;10.79;100.00
38718;BME280;24468;52.128;9.278;2022-11-06T08:43:01;100588.47;;;10.91;100.00
38718;BME280;24468;52.128;9.278;2022-11-06T08:45:28;100580.50;;;11.08;100.00
38718;BME280;24468;52.128;9.278;2022-11-06T08:47:53;100585.03;;;10.87;100.00
38718;BME280;24468;52.128;9.278;2022-11-06T08:50:19;100576.78;;;10.90;100.00
38718;BME280;24468;52.128;9.278;2022-11-06T08:52:44;100585.31;;;10.81;100.00
38718;BME280;24468;52.128;9.278;2022-11-06T08:55:10;100579.00;;;11.01;100.00
38718;BME280;24468;52.128;9.278;2022-11-06T08:57:35;100574.81;;;11.15;100.00
38718;BME280;24468;52.128;9.278;2022-11-06T09:00:01;100576.25;;;11.03;100.00
38718;BME280;24468;52.128;9.278;2022-11-06T09:02:27;100574.50;;;11.21;100.00
38718;BME280;24468;52.128;9.278;2022-11-06T09:04:53;100571.75;;;11.41;100.00
38718;BME280;24468;52.128;9.278;2022-11-06T09:07:18;100575.84;;;11.31;100.00
38718;BME280;24468;52.128;9.278;2022-11-06T09:09:44;100578.41;;;11.34;100.00
38718;BME280;24468;52.128;9.278;2022-11-06T09:12:09;100577.78;;;11.46;100.00
38718;BME280;24468;52.128;9.278;2022-11-06T09:14:35;100556.31;;;11.24;100.00
38718;BME280;24468;52.128;9.278;2022-11-06T09:17:01;100548.81;;;11.12;100.00
38718;BME280;24468;52.128;9.278;2022-11-06T09:19:26;100543.78;;;11.23;100.00
38718;BME280;24468;52.128;9.278;2022-11-06T09:21:52;100538.59;;;11.38;100.00
38718;BME280;24468;52.128;9.278;2022-11-06T09:24:17;100537.44;;;11.43;100.00
38718;BME280;24468;52.128;9.278;2022-11-06T09:26:43;100530.72;;;11.33;100.00
38718;BME280;24468;52.128;9.278;2022-11-06T09:29:08;100526.72;;;11.42;100.00
38718;BME280;24468;52.128;9.278;2022-11-06T09:31:34;100524.16;;;11.39;100.00
38718;BME280;24468;52.128;9.278;2022-11-06T09:33:59;100524.94;;;11.41;100.00
38718;BME280;24468;52.128;9.278;2022-11-06T09:36:25;100526.19;;;11.52;100.00
38718;BME280;24468;52.128;9.278;2022-11-06T09:38:50;100536.25;;;11.49;100.00
38718;BME280;24468;52.128;9.278;2022-11-06T09:47:24;100516.47;;;11.85;100.00
38718;BME280;24468;52.128;9.278;2022-11-06T09:49:54;100517.25;;;11.69;100.00
38718;BME280;24468;52.128;9.278;2022-11-06T09:52:35;100514.47;;;11.71;100.00
38718;BME280;24468;52.128;9.278;2022-11-06T09:55:18;100512.81;;;12.05;100.00
38718;BME280;24468;52.128;9.278;2022-11-06T09:58:00;100516.00;;;12.30;100.00
38718;BME280;24468;52.128;9.278;2022-11-06T10:00:28;100513.22;;;12.49;100.00
38718;BME280;24468;52.128;9.278;2022-11-06T10:03:01;100528.16;;;12.39;100.00
38718;BME280;24468;52.128;9.278;2022-11-06T10:05:35;100526.59;;;12.35;100.00
38718;BME280;24468;52.128;9.278;2022-11-06T10:08:12;100518.88;;;12.10;100.00
38718;BME280;24468;52.128;9.278;2022-11-06T10:10:49;100517.69;;;12.15;100.00
38718;BME280;24468;52.128;9.278;2022-11-06T10:13:57;100518.13;;;11.89;100.00
38718;BME280;24468;52.128;9.278;2022-11-06T10:19:37;100517.44;;;11.84;100.00
38718;BME280;24468;52.128;9.278;2022-11-06T10:27:40;100506.00;;;12.32;100.00
38718;BME280;24468;52.128;9.278;2022-11-06T10:30:14;100504.22;;;12.31;100.00
38718;BME280;24468;52.128;9.278;2022-11-06T10:32:49;100493.75;;;12.58;100.00
38718;BME280;24468;52.128;9.278;2022-11-06T10:35:49;100496.97;;;12.49;100.00
38718;BME280;24468;52.128;9.278;2022-11-06T10:38:14;100497.41;;;12.07;100.00
38718;BME280;24468;52.128;9.278;2022-11-06T10:40:44;100485.63;;;12.08;100.00
38718;BME280;24468;52.128;9.278;2022-11-06T10:48:57;100465.72;;;12.77;100.00
38718;BME280;24468;52.128;9.278;2022-11-06T10:57:13;100439.56;;;12.60;100.00
38718;BME280;24468;52.128;9.278;2022-11-06T10:59:43;100446.25;;;12.70;100.00
38718;BME280;24468;52.128;9.278;2022-11-06T11:02:28;100433.09;;;12.96;100.00
38718;BME280;24468;52.128;9.278;2022-11-06T11:04:55;100430.47;;;13.10;100.00
38718;BME280;24468;52.128;9.278;2022-11-06T11:07:21;100429.16;;;13.01;100.00
38718;BME280;24468;52.128;9.278;2022-11-06T11:09:47;100419.16;;;12.86;100.00
38718;BME280;24468;52.128;9.278;2022-11-06T11:12:29;100418.34;;;13.17;100.00
38718;BME280;24468;52.128;9.278;2022-11-06T11:15:14;100415.88;;;12.81;99.76
38718;BME280;24468;52.128;9.278;2022-11-06T11:17:42;100410.38;;;12.98;99.31
38718;BME280;24468;52.128;9.278;2022-11-06T11:20:31;100406.19;;;12.93;96.88
38718;BME280;24468;52.128;9.278;2022-11-06T11:23:26;100406.13;;;13.26;96.81
38718;BME280;24468;52.128;9.278;2022-11-06T11:25:54;100404.16;;;13.12;96.75
38718;BME280;24468;52.128;9.278;2022-11-06T11:28:29;100387.91;;;13.12;96.57
38718;BME280;24468;52.128;9.278;2022-11-06T11:31:09;100393.31;;;12.96;98.42
38718;BME280;24468;52.128;9.278;2022-11-06T11:33:37;100394.72;;;12.72;97.21
38718;BME280;24468;52.128;9.278;2022-11-06T11:36:04;100384.84;;;12.71;100.00
38718;BME280;24468;52.128;9.278;2022-11-06T11:38:35;100381.28;;;12.70;99.65
38718;BME280;24468;52.128;9.278;2022-11-06T11:43:43;100359.91;;;12.32;100.00
38718;BME280;24468;52.128;9.278;2022-11-06T11:48:55;100360.66;;;12.67;100.00
38718;BME280;24468;52.128;9.278;2022-11-06T11:51:39;100353.69;;;12.79;99.28
38718;BME280;24468;52.128;9.278;2022-11-06T11:57:00;100339.06;;;13.13;93.67
38718;BME280;24468;52.128;9.278;2022-11-06T11:59:33;100341.69;;;13.15;96.21
38718;BME280;24468;52.128;9.278;2022-11-06T12:02:28;100331.09;;;13.42;94.08
38718;BME280;24468;52.128;9.278;2022-11-06T12:05:15;100338.00;;;13.16;93.97
38718;BME280;24468;52.128;9.278;2022-11-06T12:07:54;100340.91;;;13.13;94.46
38718;BME280;24468;52.128;9.278;2022-11-06T12:10:33;100334.00;;;13.07;95.20
38718;BME280;24468;52.128;9.278;2022-11-06T12:13:06;100331.13;;;13.26;96.00
38718;BME280;24468;52.128;9.278;2022-11-06T12:18:27;100318.97;;;13.18;98.35
38718;BME280;24468;52.128;9.278;2022-11-06T12:21:18;100316.81;;;13.08;98.98
38718;BME280;24468;52.128;9.278;2022-11-06T12:24:19;100310.78;;;13.03;98.20
38718;BME280;24468;52.128;9.278;2022-11-06T12:27:16;100303.09;;;13.11;97.88
38718;BME280;24468;52.128;9.278;2022-11-06T12:30:15;100310.47;;;13.24;96.78
38718;BME280;24468;52.128;9.278;2022-11-06T12:33:10;100309.31;;;12.98;98.63
38718;BME280;24468;52.128;9.278;2022-11-06T12:35:44;100308.25;;;13.00;99.45
38718;BME280;24468;52.128;9.278;2022-11-06T12:38:53;100300.09;;;13.16;96.65
38718;BME280;24468;52.128;9.278;2022-11-06T12:41:30;100290.13;;;13.32;94.90
38718;BME280;24468;52.128;9.278;2022-11-06T12:43:57;100286.44;;;13.64;95.31
38718;BME280;24468;52.128;9.278;2022-11-06T12:46:59;100279.69;;;13.85;91.81
38718;BME280;24468;52.128;9.278;2022-11-06T12:52:50;100273.53;;;13.39;88.96
38718;BME280;24468;52.128;9.278;2022-11-06T12:58:47;100258.94;;;13.25;90.34
38718;BME280;24468;52.128;9.278;2022-11-06T13:01:41;100254.03;;;13.91;88.64
38718;BME280;24468;52.128;9.278;2022-11-06T13:07:29;100225.16;;;13.75;88.64
38718;BME280;24468;52.128;9.278;2022-11-06T13:10:13;100222.94;;;13.68;88.94
38718;BME280;24468;52.128;9.278;2022-11-06T13:15:46;100211.00;;;13.42;92.23
38718;BME280;24468;52.128;9.278;2022-11-06T13:18:34;100205.66;;;13.40;94.34
38718;BME280;24468;52.128;9.278;2022-11-06T13:24:04;100203.75;;;12.82;94.43
38718;BME280;24468;52.128;9.278;2022-11-06T13:26:40;100196.53;;;12.97;94.55
38718;BME280;24468;52.128;9.278;2022-11-06T13:29:11;100181.06;;;12.53;93.68
38718;BME280;24468;52.128;9.278;2022-11-06T13:31:51;100180.16;;;12.38;95.47
38718;BME280;24468;52.128;9.278;2022-11-06T13:34:26;100174.84;;;12.66;95.70
38718;BME280;24468;52.128;9.278;2022-11-06T13:36:54;100167.72;;;12.96;93.42
38718;BME280;24468;52.128;9.278;2022-11-06T13:39:55;100162.03;;;12.70;92.47
38718;BME280;24468;52.128;9.278;2022-11-06T13:42:30;100161.03;;;12.87;92.72
38718;BME280;24468;52.128;9.278;2022-11-06T13:44:59;100160.84;;;12.90;93.59
38718;BME280;24468;52.128;9.278;2022-11-06T13:48:06;100160.22;;;13.15;90.69
38718;BME280;24468;52.128;9.278;2022-11-06T13:53:26;100169.41;;;13.12;90.71
38718;BME280;24468;52.128;9.278;2022-11-06T13:56:10;100144.88;;;13.00;92.24
38718;BME280;24468;52.128;9.278;2022-11-06T14:05:09;100131.69;;;12.79;93.47
38718;BME280;24468;52.128;9.278;2022-11-06T14:07:44;100135.66;;;12.74;95.14
38718;BME280;24468;52.128;9.278;2022-11-06T14:10:20;100125.31;;;12.50;95.81
38718;BME280;24468;52.128;9.278;2022-11-06T14:12:48;100119.97;;;12.64;97.12
38718;BME280;24468;52.128;9.278;2022-11-06T14:17:55;100112.41;;;12.39;96.05
38718;BME280;24468;52.128;9.278;2022-11-06T14:20:37;100127.19;;;12.64;96.55
38718;BME280;24468;52.128;9.278;2022-11-06T14:28:35;100134.38;;;12.65;97.25
38718;BME280;24468;52.128;9.278;2022-11-06T14:31:01;100130.44;;;12.55;96.75
38718;BME280;24468;52.128;9.278;2022-11-06T14:38:47;100129.00;;;12.33;95.84
38718;BME280;24468;52.128;9.278;2022-11-06T14:44:42;100122.34;;;12.39;95.31
38718;BME280;24468;52.128;9.278;2022-11-06T14:47:31;100111.72;;;12.36;95.67
38718;BME280;24468;52.128;9.278;2022-11-06T14:50:23;100114.97;;;12.42;95.77
38718;BME280;24468;52.128;9.278;2022-11-06T14:53:01;100113.81;;;12.46;96.59
38718;BME280;24468;52.128;9.278;2022-11-06T14:55:54;100127.44;;;12.29;97.17
38718;BME280;24468;52.128;9.278;2022-11-06T14:58:23;100110.66;;;12.38;97.59
38718;BME280;24468;52.128;9.278;2022-11-06T15:03:57;100120.81;;;12.35;95.50
38718;BME280;24468;52.128;9.278;2022-11-06T15:06:38;100115.97;;;12.10;95.12